Time;durP1;ratioP1;P1;durP2;ratioP2;P2;SDS_P1;SDS_P2;PMS_P1;PMS_P2;Temp;Humidity;BMP_temperature;BMP_pressure;BME280_temperature;BME280_humidity;BME280_pressure;Samples;Min_cycle;Max_cycle;Signal;HPM_P1;HPM_P2
2021/01/24 00:01:02;;;;;;;53.50;24.70;;;;;;;1.42;100.00;98401.97;1711336;82;21045;-80
2021/01/24 00:03:31;;;;;;;52.80;23.20;;;;;;;1.42;100.00;98401.43;1734310;82;21049;-79
2021/01/24 00:05:59;;;;;;;59.25;23.90;;;;;;;1.42;100.00;98397.38;1734224;82;21081;-79
2021/01/24 00:08:26;;;;;;;62.40;26.05;;;;;;;1.43;100.00;98398.98;1734230;82;21192;-77
2021/01/24 00:10:54;;;;;;;53.55;24.43;;;;;;;1.44;100.00;98395.73;1733882;81;21269;-78
2021/01/24 00:13:21;;;;;;;55.12;23.65;;;;;;;1.46;100.00;98398.96;1720274;81;20967;-79
2021/01/24 00:15:49;;;;;;;49.20;22.00;;;;;;;1.46;100.00;98394.91;1721952;82;20962;-77
2021/01/24 00:18:16;;;;;;;53.08;22.95;;;;;;;1.45;100.00;98387.34;1734252;82;20991;-78
2021/01/24 00:20:43;;;;;;;49.23;22.58;;;;;;;1.44;100.00;98392.48;1730976;82;21133;-78
2021/01/24 00:23:11;;;;;;;49.95;22.45;;;;;;;1.46;100.00;98388.14;1705018;82;21379;-78
2021/01/24 00:25:38;;;;;;;58.30;24.12;;;;;;;1.46;100.00;98390.30;1704835;82;20966;-78
2021/01/24 00:28:05;;;;;;;51.63;21.40;;;;;;;1.47;100.00;98382.45;1704961;84;21216;-77
2021/01/24 00:30:33;;;;;;;51.42;22.77;;;;;;;1.47;100.00;98377.59;1704959;84;21184;-78
2021/01/24 00:33:00;;;;;;;46.37;21.35;;;;;;;1.45;100.00;98373.81;1704921;84;21085;-78
2021/01/24 00:35:28;;;;;;;49.83;22.55;;;;;;;1.46;100.00;98378.68;1704989;83;20983;-74
2021/01/24 00:37:55;;;;;;;49.33;23.12;;;;;;;1.45;100.00;98376.52;1715878;83;21139;-76
2021/01/24 00:40:23;;;;;;;44.83;20.68;;;;;;;1.45;100.00;98373.81;1723686;83;21224;-76
2021/01/24 00:42:50;;;;;;;48.83;20.32;;;;;;;1.44;100.00;98367.34;1723818;83;21045;-76
2021/01/24 00:45:18;;;;;;;46.68;22.37;;;;;;;1.43;100.00;98365.19;1723924;83;21096;-77
2021/01/24 00:47:46;;;;;;;45.40;21.93;;;;;;;1.43;100.00;98369.23;1723910;83;22140;-76
2021/01/24 00:50:14;;;;;;;43.95;20.35;;;;;;;1.44;100.00;98367.34;1723709;83;21168;-76
2021/01/24 00:52:42;;;;;;;47.85;21.40;;;;;;;1.43;100.00;98360.32;1723835;83;21062;-77
2021/01/24 00:55:11;;;;;;;45.58;20.80;;;;;;;1.41;100.00;98357.09;1723792;82;21191;-76
2021/01/24 00:57:38;;;;;;;46.50;21.37;;;;;;;1.41;100.00;98351.14;1723803;83;20934;-77
2021/01/24 01:00:07;;;;;;;51.08;22.02;;;;;;;1.42;100.00;98354.65;1723915;83;21711;-77
2021/01/24 01:02:35;;;;;;;45.67;22.75;;;;;;;1.43;100.00;98355.72;1749568;81;21584;-76
2021/01/24 01:05:03;;;;;;;41.25;18.95;;;;;;;1.45;100.00;98359.48;1753773;81;21069;-76
2021/01/24 01:07:32;;;;;;;38.58;19.15;;;;;;;1.45;100.00;98345.42;1753792;81;21076;-75
2021/01/24 01:10:00;;;;;;;40.03;19.57;;;;;;;1.44;100.00;98345.70;1753671;81;21073;-76
2021/01/24 01:12:27;;;;;;;43.73;18.62;;;;;;;1.45;100.00;98340.56;1753789;81;21205;-75
2021/01/24 01:14:55;;;;;;;40.33;19.07;;;;;;;1.45;100.00;98338.66;1753697;81;21627;-75
2021/01/24 01:17:22;;;;;;;35.83;18.02;;;;;;;1.44;100.00;98336.23;1753808;81;21204;-76
2021/01/24 01:19:50;;;;;;;39.05;19.25;;;;;;;1.43;100.00;98336.78;1753690;81;21077;-76
2021/01/24 01:22:17;;;;;;;37.93;17.85;;;;;;;1.44;100.00;98344.36;1753772;81;21204;-76
2021/01/24 01:24:45;;;;;;;46.53;19.20;;;;;;;1.46;100.00;98338.11;1753805;81;21815;-79
2021/01/24 01:27:12;;;;;;;33.75;17.32;;;;;;;1.46;100.00;98332.70;1753888;81;21532;-80
2021/01/24 01:29:40;;;;;;;41.90;18.40;;;;;;;1.46;100.00;98332.16;1753816;81;21156;-79
2021/01/24 01:32:07;;;;;;;28.42;15.65;;;;;;;1.48;100.00;98331.87;1753763;81;21168;-85
2021/01/24 01:34:34;;;;;;;40.10;16.62;;;;;;;1.48;100.00;98332.68;1753649;81;21124;-84
2021/01/24 01:37:02;;;;;;;34.43;17.60;;;;;;;1.49;100.00;98322.13;1752059;81;21370;-84
2021/01/24 01:39:29;;;;;;;31.77;16.57;;;;;;;1.50;100.00;98325.63;1734203;81;20959;-81
2021/01/24 01:41:57;;;;;;;38.15;16.45;;;;;;;1.49;100.00;98314.01;1734231;82;21124;-82
2021/01/24 01:44:25;;;;;;;31.37;16.62;;;;;;;1.50;100.00;98314.81;1734237;82;21207;-83
2021/01/24 01:46:53;;;;;;;29.25;15.18;;;;;;;1.51;100.00;98307.77;1734309;82;21172;-82
2021/01/24 01:49:21;;;;;;;29.87;16.30;;;;;;;1.50;100.00;98304.80;1734030;82;21358;-81
2021/01/24 01:51:48;;;;;;;37.58;15.25;;;;;;;1.50;100.00;98300.75;1734154;82;20939;-77
2021/01/24 01:54:16;;;;;;;29.82;15.48;;;;;;;1.51;100.00;98302.91;1734187;82;21111;-77
2021/01/24 01:56:43;;;;;;;30.25;13.55;;;;;;;1.52;100.00;98300.45;1734117;82;21192;-77
2021/01/24 01:59:11;;;;;;;31.57;15.63;;;;;;;1.54;100.00;98296.92;1734306;82;20939;-77
2021/01/24 02:02:07;;;;;;;27.73;14.20;;;;;;;1.54;100.00;98296.92;1734176;82;21161;-77
2021/01/24 02:04:51;;;;;;;29.92;14.15;;;;;;;1.55;100.00;98298.53;1734144;82;21002;-77
2021/01/24 02:07:44;;;;;;;27.82;13.85;;;;;;;1.56;100.00;98297.44;1734415;82;21073;-77
2021/01/24 02:10:38;;;;;;;24.05;13.28;;;;;;;1.58;100.00;98300.13;1734107;82;21144;-77
2021/01/24 02:13:17;;;;;;;25.00;14.15;;;;;;;1.61;100.00;98304.15;1734247;82;21187;-77
2021/01/24 02:15:45;;;;;;;28.83;14.80;;;;;;;1.62;100.00;98309.82;1758011;81;21197;-78
2021/01/24 02:18:12;;;;;;;59.23;16.15;;;;;;;1.65;100.00;98305.19;1765779;81;21040;-77
2021/01/24 02:20:45;;;;;;;22.58;12.50;;;;;;;1.66;100.00;98300.03;1766736;81;21139;-78
2021/01/24 02:23:14;;;;;;;26.65;14.03;;;;;;;1.67;100.00;98290.83;1765422;81;21052;-78
2021/01/24 02:26:13;;;;;;;27.17;13.45;;;;;;;1.69;100.00;98291.34;1765412;81;21492;-79
2021/01/24 02:29:21;;;;;;;24.15;13.68;;;;;;;1.71;100.00;98293.22;1765335;81;22111;-79
2021/01/24 02:31:49;;;;;;;21.15;11.45;;;;;;;1.73;100.00;98296.44;1765272;81;21092;-78
2021/01/24 02:34:18;;;;;;;21.87;11.48;;;;;;;1.75;100.00;98294.22;1765284;81;21021;-78
2021/01/24 02:36:45;;;;;;;28.02;13.32;;;;;;;1.77;100.00;98298.80;1731257;81;21556;-78
2021/01/24 02:39:13;;;;;;;28.80;14.85;;;;;;;1.78;100.00;98289.59;1719686;82;21188;-80
2021/01/24 02:41:40;;;;;;;23.27;13.38;;;;;;;1.80;100.00;98300.13;1740135;82;21510;-79
2021/01/24 02:44:09;;;;;;;20.82;12.90;;;;;;;1.81;100.00;98287.66;1709550;83;20985;-81
2021/01/24 02:46:37;;;;;;;23.73;13.13;;;;;;;1.85;100.00;98291.39;1710788;83;21607;-81
2021/01/24 02:49:04;;;;;;;20.30;12.05;;;;;;;1.87;100.00;98294.62;1710403;83;21088;-81
2021/01/24 02:51:32;;;;;;;23.98;13.13;;;;;;;1.90;100.00;98290.53;1710501;83;21073;-80
2021/01/24 02:54:00;;;;;;;24.20;13.80;;;;;;;1.90;100.00;98294.04;1692562;83;22064;-80
2021/01/24 02:56:27;;;;;;;27.65;13.58;;;;;;;1.91;100.00;98283.47;1710430;83;21052;-81
2021/01/24 02:58:54;;;;;;;21.48;12.37;;;;;;;1.95;100.00;98277.73;1710621;83;21152;-80
2021/01/24 03:01:22;;;;;;;21.27;11.63;;;;;;;1.95;100.00;98277.73;1702754;82;21064;-79
2021/01/24 03:03:50;;;;;;;30.82;16.00;;;;;;;1.96;100.00;98278.00;1740121;82;21485;-78
2021/01/24 03:06:17;;;;;;;25.77;12.90;;;;;;;1.97;100.00;98274.20;1740139;82;22232;-77
2021/01/24 03:08:45;;;;;;;20.85;12.13;;;;;;;1.99;100.00;98268.49;1740039;82;22230;-80
2021/01/24 03:11:15;;;;;;;21.80;12.65;;;;;;;1.99;100.00;98265.23;1740045;82;21903;-76
2021/01/24 03:13:52;;;;;;;23.12;13.35;;;;;;;2.01;100.00;98256.02;1740185;82;21172;-77
2021/01/24 03:16:20;;;;;;;22.42;12.40;;;;;;;2.02;100.00;98258.98;1719905;82;21132;-79
2021/01/24 03:18:47;;;;;;;22.05;12.70;;;;;;;2.04;100.00;98252.19;1739919;82;21211;-78
2021/01/24 03:21:16;;;;;;;27.98;13.95;;;;;;;2.04;100.00;98253.54;1740125;82;21104;-76
2021/01/24 03:23:44;;;;;;;28.77;14.23;;;;;;;2.05;100.00;98256.50;1740192;82;21163;-76
2021/01/24 03:26:11;;;;;;;23.15;12.73;;;;;;;2.07;100.00;98253.50;1740023;82;21065;-80
2021/01/24 03:28:39;;;;;;;19.98;12.00;;;;;;;2.08;100.00;98256.47;1740111;82;21080;-75
2021/01/24 03:31:08;;;;;;;24.67;13.30;;;;;;;2.10;100.00;98253.73;1740020;82;21432;-77
2021/01/24 03:33:37;;;;;;;19.40;12.37;;;;;;;2.11;100.00;98258.59;1730055;81;21132;-78
2021/01/24 03:36:05;;;;;;;24.63;13.90;;;;;;;2.13;100.00;98254.50;1736059;82;21065;-77
2021/01/24 03:38:32;;;;;;;27.60;13.83;;;;;;;2.14;100.00;98251.24;1748535;81;21108;-85
2021/01/24 03:41:00;;;;;;;26.52;14.53;;;;;;;2.15;100.00;98258.27;1756355;81;21196;-88
2021/01/24 03:43:27;;;;;;;21.62;12.40;;;;;;;2.16;100.00;98244.98;1760646;81;21565;-86
2021/01/24 03:45:55;;;;;;;23.00;13.85;;;;;;;2.19;100.00;98248.46;1730760;81;21228;-85
2021/01/24 03:48:22;;;;;;;22.13;13.03;;;;;;;2.19;100.00;98241.14;1760260;81;21077;-84
2021/01/24 03:50:50;;;;;;;22.90;12.75;;;;;;;2.22;100.00;98238.41;1759753;81;21073;-86
2021/01/24 03:53:17;;;;;;;26.60;13.58;;;;;;;2.23;100.00;98235.95;1759968;81;21541;-85
2021/01/24 03:55:45;;;;;;;30.95;13.98;;;;;;;2.23;100.00;98231.34;1759775;81;21029;-79
2021/01/24 03:58:12;;;;;;;21.60;13.22;;;;;;;2.25;100.00;98226.44;1759691;81;20919;-81
2021/01/24 04:00:40;;;;;;;27.30;13.30;;;;;;;2.28;100.00;98225.05;1761967;80;21085;-76
2021/01/24 04:03:07;;;;;;;31.12;12.98;;;;;;;2.32;100.00;98221.98;1792721;80;21144;-80
2021/01/24 04:05:35;;;;;;;22.30;12.85;;;;;;;2.32;100.00;98216.02;1792879;80;21132;-77
2021/01/24 04:08:02;;;;;;;21.60;11.35;;;;;;;2.32;100.00;98216.02;1792743;80;21650;-79
2021/01/24 04:10:30;;;;;;;18.60;11.00;;;;;;;2.32;100.00;98206.53;1792483;80;21144;-78
2021/01/24 04:12:57;;;;;;;21.23;12.43;;;;;;;2.33;100.00;98208.69;1792645;80;20990;-79
2021/01/24 04:15:25;;;;;;;19.92;11.80;;;;;;;2.35;100.00;98209.20;1792853;80;21551;-78
2021/01/24 04:17:52;;;;;;;28.15;12.78;;;;;;;2.36;100.00;98208.10;1792460;80;21124;-80
2021/01/24 04:20:20;;;;;;;19.85;12.30;;;;;;;2.42;100.00;98212.89;1792690;80;21255;-81
2021/01/24 04:22:49;;;;;;;26.65;13.28;;;;;;;2.44;100.00;98207.44;1792601;80;21101;-81
2021/01/24 04:25:18;;;;;;;20.57;12.75;;;;;;;2.45;100.00;98202.83;1792602;80;20958;-80
2021/01/24 04:27:45;;;;;;;20.92;12.18;;;;;;;2.45;100.00;98196.05;1792780;80;21164;-81
2021/01/24 04:30:15;;;;;;;25.92;13.15;;;;;;;2.47;100.00;98199.27;1792567;80;21203;-81
2021/01/24 04:32:42;;;;;;;24.67;13.15;;;;;;;2.46;100.00;98194.41;1792660;80;21371;-82
2021/01/24 04:35:11;;;;;;;23.70;12.00;;;;;;;2.47;100.00;98189.24;1792703;80;20951;-81
2021/01/24 04:37:39;;;;;;;20.97;12.35;;;;;;;2.47;100.00;98193.86;1792625;80;21131;-77
2021/01/24 04:40:08;;;;;;;24.98;13.38;;;;;;;2.49;100.00;98197.88;1765412;80;21200;-75
2021/01/24 04:42:37;;;;;;;24.15;13.68;;;;;;;2.53;100.00;98194.03;1764667;81;21149;-74
2021/01/24 04:45:08;;;;;;;29.80;13.13;;;;;;;2.55;100.00;98198.60;1764691;81;21006;-74
2021/01/24 04:47:45;;;;;;;21.17;12.13;;;;;;;2.56;100.00;98191.53;1764566;81;21556;-74
2021/01/24 04:50:13;;;;;;;21.12;12.60;;;;;;;2.56;100.00;98198.30;1764453;81;21026;-75
2021/01/24 04:52:42;;;;;;;29.10;13.55;;;;;;;2.56;100.00;98198.30;1744449;81;21200;-75
2021/01/24 04:55:11;;;;;;;21.42;12.58;;;;;;;2.56;100.00;98194.24;1705934;82;21066;-74
2021/01/24 04:57:39;;;;;;;25.05;13.58;;;;;;;2.57;100.00;98190.43;1715821;81;21372;-74
2021/01/24 05:00:08;;;;;;;22.52;12.50;;;;;;;2.59;100.00;98184.72;1697375;84;21054;-78
2021/01/24 05:02:36;;;;;;;23.32;11.83;;;;;;;2.59;100.00;98178.75;1730280;81;21113;-79
2021/01/24 05:05:04;;;;;;;20.92;12.40;;;;;;;2.63;100.00;98178.41;1711704;82;21643;-79
2021/01/24 05:07:32;;;;;;;23.92;14.05;;;;;;;2.65;100.00;98177.56;1705125;84;21484;-82
2021/01/24 05:10:00;;;;;;;24.80;13.65;;;;;;;2.69;100.00;98185.09;1696809;84;21438;-77
2021/01/24 05:12:29;;;;;;;23.42;13.60;;;;;;;2.69;100.00;98182.39;1705138;84;21084;-82
2021/01/24 05:14:58;;;;;;;26.30;13.45;;;;;;;2.71;100.00;98186.41;1697188;84;21129;-76
2021/01/24 05:17:26;;;;;;;29.82;13.83;;;;;;;2.73;100.00;98188.82;1704948;84;21025;-78
2021/01/24 05:19:54;;;;;;;24.82;13.40;;;;;;;2.73;100.00;98184.20;1700923;81;21085;-81
2021/01/24 05:22:21;;;;;;;25.12;13.35;;;;;;;2.74;100.00;98187.72;1709211;81;21366;-90
2021/01/24 05:24:49;;;;;;;24.07;13.65;;;;;;;2.74;100.00;98183.11;1722619;83;21092;-85
2021/01/24 05:27:16;;;;;;;28.25;14.18;;;;;;;2.74;100.00;98172.27;1722837;83;20990;-83
2021/01/24 05:29:44;;;;;;;29.27;14.28;;;;;;;2.74;100.00;98173.63;1722769;83;21148;-84
2021/01/24 05:32:12;;;;;;;26.68;13.70;;;;;;;2.74;100.00;98169.55;1696980;84;21161;-88
2021/01/24 05:34:43;;;;;;;29.40;14.93;;;;;;;2.77;100.00;98168.96;1722806;82;21366;-90
2021/01/24 05:37:11;;;;;;;27.55;14.05;;;;;;;2.78;100.00;98164.34;1697186;84;20995;-81
2021/01/24 05:39:39;;;;;;;26.93;13.68;;;;;;;2.79;100.00;98177.59;1722591;82;21501;-83
2021/01/24 05:42:07;;;;;;;24.67;13.70;;;;;;;2.80;100.00;98165.66;1656264;84;21100;-77
2021/01/24 05:44:34;;;;;;;25.43;14.07;;;;;;;2.82;100.00;98167.52;1722777;83;21183;-84
2021/01/24 05:47:03;;;;;;;25.75;13.68;;;;;;;2.86;100.00;98166.37;1697017;84;21718;-85
2021/01/24 05:49:32;;;;;;;25.25;14.35;;;;;;;2.89;100.00;98161.67;1722670;83;21512;-83
2021/01/24 05:52:07;;;;;;;28.67;14.15;;;;;;;2.90;100.00;98166.80;1697100;84;21109;-81
2021/01/24 05:54:43;;;;;;;27.07;14.38;;;;;;;2.93;100.00;98174.88;1722803;83;21020;-82
2021/01/24 05:57:12;;;;;;;26.12;14.55;;;;;;;2.95;100.00;98163.19;1714208;81;21450;-83
2021/01/24 05:59:58;;;;;;;29.10;16.05;;;;;;;2.99;100.00;98172.33;1722772;83;21334;-79
2021/01/24 06:02:27;;;;;;;30.62;16.32;;;;;;;3.03;100.00;98165.76;1720073;83;21077;-76
2021/01/24 06:04:55;;;;;;;36.20;17.30;;;;;;;3.05;100.00;98163.55;1734151;82;21128;-76
2021/01/24 06:07:24;;;;;;;35.88;16.67;;;;;;;3.06;100.00;98161.09;1733676;82;22094;-76
2021/01/24 06:09:53;;;;;;;35.52;15.80;;;;;;;3.08;100.00;98165.66;1732524;82;20963;-72
2021/01/24 06:12:24;;;;;;;38.95;18.35;;;;;;;3.13;100.00;98167.73;1732635;82;21345;-73
2021/01/24 06:14:52;;;;;;;41.80;18.98;;;;;;;3.17;100.00;98148.95;1720752;81;21101;-77
2021/01/24 06:17:29;;;;;;;35.80;18.20;;;;;;;3.22;100.00;98164.57;1706090;82;20958;-77
2021/01/24 06:19:59;;;;;;;40.43;19.20;;;;;;;3.25;100.00;98162.61;1704967;84;21619;-75
2021/01/24 06:22:44;;;;;;;42.38;19.98;;;;;;;3.30;100.00;98160.36;1704892;82;21085;-75
2021/01/24 06:25:37;;;;;;;56.10;27.60;;;;;;;3.35;100.00;98155.38;1705095;84;22693;-76
2021/01/24 06:28:24;;;;;;;62.45;30.60;;;;;;;3.38;100.00;98163.72;1704995;84;21057;-77
2021/01/24 06:30:51;;;;;;;77.12;34.15;;;;;;;3.41;100.00;98151.46;1720498;82;21057;-74
2021/01/24 06:33:21;;;;;;;60.35;28.47;;;;;;;3.42;100.00;98158.49;1733821;81;22249;-73
2021/01/24 06:35:57;;;;;;;97.17;44.75;;;;;;;3.45;100.00;98154.63;1712845;82;21065;-75
2021/01/24 06:38:34;;;;;;;72.95;36.38;;;;;;;3.46;100.00;98150.00;1734078;82;21376;-72
2021/01/24 06:41:10;;;;;;;73.12;35.28;;;;;;;3.48;100.00;98140.98;1734055;82;21053;-72
2021/01/24 06:43:44;;;;;;;76.70;34.85;;;;;;;3.51;100.00;98147.16;1734368;81;21560;-74
2021/01/24 06:46:36;;;;;;;71.82;31.87;;;;;;;3.53;100.00;98144.39;1734204;82;20927;-72
2021/01/24 06:49:03;;;;;;;77.32;36.35;;;;;;;3.57;100.00;98158.16;1734165;82;21153;-75
2021/01/24 06:51:41;;;;;;;72.20;37.08;;;;;;;3.58;100.00;98141.56;1734281;81;21199;-73
2021/01/24 06:54:22;;;;;;;79.47;37.15;;;;;;;3.59;100.00;98138.30;1733238;82;20994;-72
2021/01/24 06:56:50;;;;;;;77.27;37.85;;;;;;;3.63;100.00;98140.66;1734269;82;21165;-81
2021/01/24 06:59:29;;;;;;;88.27;40.95;;;;;;;3.67;100.00;98140.30;1734240;82;21160;-74
2021/01/24 07:02:37;;;;;;;89.52;40.52;;;;;;;3.68;100.00;98146.53;1724136;82;21177;-75
2021/01/24 07:05:13;;;;;;;104.47;51.23;;;;;;;3.69;100.00;98146.22;1705021;82;22024;-75
2021/01/24 07:07:47;;;;;;;98.07;48.95;;;;;;;3.70;100.00;98138.33;1704283;84;21529;-73
2021/01/24 07:10:41;;;;;;;103.53;51.85;;;;;;;3.72;100.00;98148.88;1704520;84;21583;-70
2021/01/24 07:13:31;;;;;;;112.70;50.67;;;;;;;3.73;100.00;98142.34;1704300;84;21204;-71
2021/01/24 07:16:06;;;;;;;106.58;47.83;;;;;;;3.72;100.00;98143.45;1703953;84;21225;-77
2021/01/24 07:18:41;;;;;;;120.70;54.10;;;;;;;3.73;100.00;98143.15;1696601;84;21273;-73
2021/01/24 07:21:12;;;;;;;109.57;53.25;;;;;;;3.76;100.00;98140.38;1704419;84;21571;-74
2021/01/24 07:23:40;;;;;;;109.75;52.62;;;;;;;3.78;100.00;98140.87;1695919;83;21644;-78
2021/01/24 07:26:10;;;;;;;104.43;48.73;;;;;;;3.78;100.00;98134.09;1704596;84;21120;-75
2021/01/24 07:28:37;;;;;;;104.53;46.02;;;;;;;3.79;100.00;98119.41;1679060;83;21560;-79
2021/01/24 07:31:05;;;;;;;100.67;44.15;;;;;;;3.81;100.00;98122.62;1705085;82;21298;-80
2021/01/24 07:33:33;;;;;;;116.73;51.83;;;;;;;3.86;100.00;98106.22;1697100;84;21632;-87
2021/01/24 07:36:03;;;;;;;119.28;62.30;;;;;;;3.89;100.00;98111.84;1705244;84;20954;-78
2021/01/24 07:38:31;;;;;;;129.07;63.90;;;;;;;3.92;100.00;98123.45;1697039;84;21116;-74
2021/01/24 07:41:00;;;;;;;116.33;56.60;;;;;;;3.96;100.00;98120.92;1700408;81;21063;-73
2021/01/24 07:43:28;;;;;;;124.85;58.85;;;;;;;3.97;100.00;98120.61;1699964;84;21364;-70
2021/01/24 07:45:55;;;;;;;118.50;55.15;;;;;;;3.99;100.00;98129.81;1693265;84;20997;-70
2021/01/24 07:48:24;;;;;;;105.30;50.48;;;;;;;4.02;100.00;98117.53;1705533;84;20949;-71
2021/01/24 07:50:52;;;;;;;95.80;45.78;;;;;;;4.03;100.00;98127.28;1757263;81;20933;-71
2021/01/24 07:53:20;;;;;;;123.55;54.55;;;;;;;4.06;100.00;98109.80;1757186;81;21078;-72
2021/01/24 07:55:48;;;;;;;116.47;55.12;;;;;;;4.10;100.00;98112.70;1757083;81;22438;-71
2021/01/24 07:58:16;;;;;;;110.57;52.90;;;;;;;4.12;100.00;98121.34;1757242;80;20945;-74
2021/01/24 08:00:45;;;;;;;110.25;49.42;;;;;;;4.14;100.00;98114.48;1723571;82;21047;-70
2021/01/24 08:03:15;;;;;;;100.02;49.08;;;;;;;4.16;100.00;98104.67;1679688;84;21479;-68
2021/01/24 08:05:43;;;;;;;96.40;51.70;;;;;;;4.17;100.00;98102.20;1711022;81;21063;-69
2021/01/24 08:08:11;;;;;;;107.03;54.25;;;;;;;4.16;100.00;98095.97;1723717;83;21377;-70
2021/01/24 08:10:38;;;;;;;101.07;51.25;;;;;;;4.17;100.00;98100.30;1679369;84;21084;-68
2021/01/24 08:13:06;;;;;;;98.78;46.98;;;;;;;4.19;100.00;98097.27;1757275;81;21623;-73
2021/01/24 08:15:33;;;;;;;109.25;51.00;;;;;;;4.20;100.00;98091.53;1757041;81;21047;-72
2021/01/24 08:18:01;;;;;;;108.05;53.95;;;;;;;4.22;100.00;98094.73;1733866;81;21161;-71
2021/01/24 08:20:28;;;;;;;99.55;47.45;;;;;;;4.26;100.00;98091.65;1757257;81;21794;-71
2021/01/24 08:22:57;;;;;;;89.40;43.87;;;;;;;4.29;100.00;98087.52;1721340;81;21584;-74
2021/01/24 08:25:25;;;;;;;96.82;43.35;;;;;;;4.31;100.00;98094.80;1679637;84;21151;-68
2021/01/24 08:27:52;;;;;;;91.32;42.75;;;;;;;4.30;100.00;98095.35;1757221;81;21068;-72
2021/01/24 08:30:21;;;;;;;79.22;38.17;;;;;;;4.31;100.00;98090.72;1698982;83;21086;-73
2021/01/24 08:32:48;;;;;;;80.47;34.00;;;;;;;4.31;100.00;98086.64;1705468;82;21373;-74
2021/01/24 08:35:16;;;;;;;88.75;37.63;;;;;;;4.30;100.00;98098.06;1757021;80;21143;-70
2021/01/24 08:37:44;;;;;;;81.60;42.23;;;;;;;4.31;100.00;98090.72;1757105;81;21115;-70
2021/01/24 08:40:13;;;;;;;89.95;47.23;;;;;;;4.33;100.00;98097.20;1690265;84;21151;-76
2021/01/24 08:42:49;;;;;;;89.72;42.45;;;;;;;4.35;100.00;98097.70;1697096;84;21085;-79
2021/01/24 08:45:20;;;;;;;87.02;44.03;;;;;;;4.36;100.00;98093.31;1704997;84;21442;-76
2021/01/24 08:47:53;;;;;;;100.65;51.48;;;;;;;4.40;100.00;98093.49;1696776;83;21479;-76
2021/01/24 08:50:22;;;;;;;99.75;47.23;;;;;;;4.42;100.00;98099.42;1704902;83;20966;-75
2021/01/24 08:52:58;;;;;;;93.62;45.88;;;;;;;4.44;100.00;98094.48;1696632;84;21105;-71
2021/01/24 08:55:25;;;;;;;86.60;42.78;;;;;;;4.45;100.00;98093.37;1714416;82;21132;-73
2021/01/24 08:57:53;;;;;;;86.63;42.95;;;;;;;4.46;100.00;98083.55;1714313;82;21384;-71
2021/01/24 09:00:22;;;;;;;82.27;39.78;;;;;;;4.48;100.00;98088.67;1728598;82;21620;-69
2021/01/24 09:02:50;;;;;;;67.32;31.68;;;;;;;4.51;100.00;98082.05;1710290;82;21077;-69
2021/01/24 09:05:30;;;;;;;68.37;32.93;;;;;;;4.55;100.00;98076.25;1684090;84;21167;-70
2021/01/24 09:07:58;;;;;;;62.73;33.53;;;;;;;4.56;100.00;98065.62;1697798;81;21010;-70
2021/01/24 09:10:33;;;;;;;60.63;29.98;;;;;;;4.60;100.00;98074.75;1706372;83;22277;-70
2021/01/24 09:13:02;;;;;;;66.85;30.25;;;;;;;4.64;100.00;98059.39;1696881;83;21188;-69
2021/01/24 09:15:32;;;;;;;65.37;29.00;;;;;;;4.69;100.00;98063.09;1722742;83;21515;-68
2021/01/24 09:18:00;;;;;;;67.10;29.70;;;;;;;4.72;100.00;98055.67;1696961;84;21164;-69
2021/01/24 09:20:29;;;;;;;66.47;29.85;;;;;;;4.76;100.00;98055.28;1722668;83;21050;-69
2021/01/24 09:22:57;;;;;;;55.88;30.68;;;;;;;4.79;100.00;98056.82;1715118;83;21781;-74
2021/01/24 09:25:24;;;;;;;83.22;42.58;;;;;;;4.81;100.00;98055.15;1728144;81;21660;-69
2021/01/24 09:27:52;;;;;;;72.17;36.58;;;;;;;4.84;100.00;98052.60;1704790;84;21651;-69
2021/01/24 09:30:20;;;;;;;79.72;41.75;;;;;;;4.88;100.00;98051.42;1704706;84;21093;-70
2021/01/24 09:32:47;;;;;;;89.52;46.15;;;;;;;4.90;100.00;98054.06;1722028;81;21117;-70
2021/01/24 09:35:15;;;;;;;85.17;47.78;;;;;;;4.97;100.00;98050.89;1704621;84;21419;-70
2021/01/24 09:37:43;;;;;;;72.97;42.55;;;;;;;5.00;100.00;98044.82;1712227;81;21612;-71
2021/01/24 09:40:12;;;;;;;71.05;38.13;;;;;;;5.03;100.00;98052.34;1715615;82;21667;-68
2021/01/24 09:42:39;;;;;;;65.50;33.30;;;;;;;5.08;100.00;98052.77;1733971;82;21196;-70
2021/01/24 09:45:09;;;;;;;52.13;26.80;;;;;;;5.10;100.00;98046.45;1734146;82;21141;-67
2021/01/24 09:47:37;;;;;;;62.93;35.85;;;;;;;5.16;100.00;98042.47;1722857;82;21370;-67
2021/01/24 09:50:08;;;;;;;66.22;36.70;;;;;;;5.20;100.00;98048.29;1724883;82;21140;-68
2021/01/24 09:52:38;;;;;;;63.48;32.20;;;;;;;5.26;100.00;98048.38;1734285;81;20990;-68
2021/01/24 09:55:07;;;;;;;61.40;31.27;;;;;;;5.33;100.00;98043.03;1734302;82;21094;-67
2021/01/24 09:57:37;;;;;;;56.80;30.02;;;;;;;5.33;100.00;98043.03;1734177;82;21202;-67
2021/01/24 10:00:07;;;;;;;68.30;30.55;;;;;;;5.37;100.00;98041.28;1734349;82;21358;-67
2021/01/24 10:02:42;;;;;;;61.60;31.27;;;;;;;5.39;100.00;98041.20;1734100;82;20954;-68
2021/01/24 10:05:11;;;;;;;50.83;30.30;;;;;;;5.41;100.00;98037.61;1734193;82;21212;-67
2021/01/24 10:07:40;;;;;;;56.10;28.83;;;;;;;5.41;100.00;98024.56;1734212;82;21113;-67
2021/01/24 10:10:10;;;;;;;65.03;29.98;;;;;;;5.40;100.00;98025.12;1734302;82;21476;-67
2021/01/24 10:12:38;;;;;;;64.05;32.45;;;;;;;5.40;100.00;98025.12;1734129;82;21369;-66
2021/01/24 10:15:07;;;;;;;61.02;31.97;;;;;;;5.43;100.00;98019.59;1752147;81;21690;-66
2021/01/24 10:17:35;;;;;;;69.97;38.05;;;;;;;5.46;100.00;98020.32;1770474;81;21056;-67
2021/01/24 10:20:06;;;;;;;64.70;34.95;;;;;;;5.49;100.00;98016.96;1770438;81;21169;-66
2021/01/24 10:22:34;;;;;;;50.95;28.95;;;;;;;5.53;100.00;98019.28;1770565;81;21156;-67
2021/01/24 10:25:01;;;;;;;59.18;32.42;;;;;;;5.53;100.00;98019.28;1770641;81;23511;-66
2021/01/24 10:27:30;;;;;;;49.10;26.27;;;;;;;5.59;100.00;98008.48;1770438;81;20966;-66
2021/01/24 10:29:58;;;;;;;43.80;24.00;;;;;;;5.61;100.00;97997.52;1740391;81;21631;-66
2021/01/24 10:32:25;;;;;;;44.65;24.50;;;;;;;5.67;100.00;98003.59;1770576;81;21650;-66
2021/01/24 10:34:55;;;;;;;32.33;18.98;;;;;;;5.72;100.00;97997.19;1769434;81;21170;-66
2021/01/24 10:37:23;;;;;;;39.95;18.98;;;;;;;5.74;100.00;97990.86;1770514;81;21483;-66
2021/01/24 10:39:51;;;;;;;35.85;19.23;;;;;;;5.81;100.00;98007.48;1770481;79;20906;-66
2021/01/24 10:42:19;;;;;;;41.20;19.10;;;;;;;5.81;100.00;98007.48;1782241;79;21078;-67
2021/01/24 10:44:46;;;;;;;35.10;18.45;;;;;;;5.81;100.00;98004.77;1815434;77;21977;-67
2021/01/24 10:47:14;;;;;;;164.35;82.85;;;;;;;5.81;100.00;98002.04;1815682;79;21136;-66
2021/01/24 10:49:43;;;;;;;41.10;24.82;;;;;;;5.81;100.00;98000.12;1815328;77;21388;-67
2021/01/24 10:52:10;;;;;;;52.70;25.15;;;;;;;5.81;100.00;97993.88;1815612;79;21901;-67
2021/01/24 10:54:38;;;;;;;54.75;32.65;;;;;;;5.81;100.00;97993.31;1815567;79;21547;-67
2021/01/24 10:57:06;;;;;;;43.15;19.00;;;;;;;5.85;100.00;97991.55;1815436;79;21164;-66
2021/01/24 10:59:34;;;;;;;41.53;19.77;;;;;;;5.90;100.00;97985.16;1815566;79;21131;-66
2021/01/24 11:02:02;;;;;;;44.05;22.77;;;;;;;5.90;100.00;97985.16;1798303;79;21257;-66
2021/01/24 11:04:33;;;;;;;208.90;88.80;;;;;;;5.93;100.00;97983.16;1788300;80;21005;-66
2021/01/24 11:07:01;;;;;;;78.28;39.73;;;;;;;5.96;100.00;97975.70;1788481;80;21559;-66
2021/01/24 11:09:29;;;;;;;42.27;22.37;;;;;;;6.01;100.00;97975.53;1788366;79;21052;-67
2021/01/24 11:11:59;;;;;;;31.87;17.70;;;;;;;6.05;100.00;97967.52;1788452;80;21048;-66
2021/01/24 11:14:27;;;;;;;40.75;19.77;;;;;;;6.08;100.00;97966.86;1788466;79;21432;-66
2021/01/24 11:16:55;;;;;;;42.23;17.20;;;;;;;6.11;100.00;97960.77;1788384;80;21044;-67
2021/01/24 11:19:22;;;;;;;29.15;15.55;;;;;;;6.14;100.00;97957.39;1788351;80;20961;-67
2021/01/24 11:21:50;;;;;;;44.83;21.90;;;;;;;6.16;100.00;97956.50;1788512;79;21101;-67
2021/01/24 11:24:17;;;;;;;89.70;42.62;;;;;;;6.24;100.00;97954.32;1788364;80;21150;-67
2021/01/24 11:26:45;;;;;;;127.80;79.30;;;;;;;6.24;100.00;97954.32;1788433;80;21508;-70
2021/01/24 11:29:14;;;;;;;49.15;26.42;;;;;;;6.28;100.00;97956.63;1788497;80;20981;-67